sensor_id;sensor_type;location;lat;lon;timestamp;temperature;humidity
3268;DHT22;1646;52.450;13.326;2022-12-18T00:03:40;-3.90;99.90
3268;DHT22;1646;52.450;13.326;2022-12-18T00:08:39;-3.80;99.90
3268;DHT22;1646;52.450;13.326;2022-12-18T00:13:38;-3.70;99.90
3268;DHT22;1646;52.450;13.326;2022-12-18T00:18:37;-3.90;99.90
3268;DHT22;1646;52.450;13.326;2022-12-18T00:23:38;-3.90;99.90
3268;DHT22;1646;52.450;13.326;2022-12-18T00:28:37;-4.00;99.90
3268;DHT22;1646;52.450;13.326;2022-12-18T00:33:36;-4.10;99.90
3268;DHT22;1646;52.450;13.326;2022-12-18T00:38:40;-4.10;99.90
3268;DHT22;1646;52.450;13.326;2022-12-18T00:43:39;-4.10;99.90
3268;DHT22;1646;52.450;13.326;2022-12-18T00:48:37;-4.20;99.90
3268;DHT22;1646;52.450;13.326;2022-12-18T00:53:36;-4.10;99.90
3268;DHT22;1646;52.450;13.326;2022-12-18T00:58:36;-4.00;99.90
3268;DHT22;1646;52.450;13.326;2022-12-18T01:03:34;-3.90;99.90
3268;DHT22;1646;52.450;13.326;2022-12-18T01:08:33;-3.90;99.90
3268;DHT22;1646;52.450;13.326;2022-12-18T01:13:31;-4.00;99.90
3268;DHT22;1646;52.450;13.326;2022-12-18T01:18:30;-4.00;99.90
3268;DHT22;1646;52.450;13.326;2022-12-18T01:23:28;-4.10;99.90
3268;DHT22;1646;52.450;13.326;2022-12-18T01:28:29;-4.20;99.90
3268;DHT22;1646;52.450;13.326;2022-12-18T01:33:27;-4.30;99.90
3268;DHT22;1646;52.450;13.326;2022-12-18T01:38:28;-4.20;99.90
3268;DHT22;1646;52.450;13.326;2022-12-18T01:43:44;-4.20;99.90
3268;DHT22;1646;52.450;13.326;2022-12-18T01:48:44;-4.20;99.90
3268;DHT22;1646;52.450;13.326;2022-12-18T01:53:45;-4.10;99.90
3268;DHT22;1646;52.450;13.326;2022-12-18T01:58:50;-4.10;99.90
3268;DHT22;1646;52.450;13.326;2022-12-18T02:03:49;-4.10;99.90
3268;DHT22;1646;52.450;13.326;2022-12-18T02:09:02;-4.40;99.90
3268;DHT22;1646;52.450;13.326;2022-12-18T02:14:11;-4.50;99.90
3268;DHT22;1646;52.450;13.326;2022-12-18T02:19:26;-4.50;99.90
3268;DHT22;1646;52.450;13.326;2022-12-18T02:24:34;-4.30;99.90
3268;DHT22;1646;52.450;13.326;2022-12-18T02:29:37;-4.20;99.90
3268;DHT22;1646;52.450;13.326;2022-12-18T02:34:38;-4.10;99.90
3268;DHT22;1646;52.450;13.326;2022-12-18T02:39:43;-4.00;99.90
3268;DHT22;1646;52.450;13.326;2022-12-18T02:44:46;-4.20;99.90
3268;DHT22;1646;52.450;13.326;2022-12-18T02:49:54;-4.30;99.90
3268;DHT22;1646;52.450;13.326;2022-12-18T02:55:08;-4.40;99.90
3268;DHT22;1646;52.450;13.326;2022-12-18T03:00:18;-4.40;99.90
3268;DHT22;1646;52.450;13.326;2022-12-18T03:05:19;-4.50;99.90
3268;DHT22;1646;52.450;13.326;2022-12-18T03:10:21;-4.60;99.90
3268;DHT22;1646;52.450;13.326;2022-12-18T03:15:26;-4.50;99.90
3268;DHT22;1646;52.450;13.326;2022-12-18T03:20:34;-4.60;99.90
3268;DHT22;1646;52.450;13.326;2022-12-18T03:25:33;-4.50;99.90
3268;DHT22;1646;52.450;13.326;2022-12-18T03:30:37;-4.40;99.90
3268;DHT22;1646;52.450;13.326;2022-12-18T03:35:38;-4.50;99.90
3268;DHT22;1646;52.450;13.326;2022-12-18T03:40:45;-4.40;99.90
3268;DHT22;1646;52.450;13.326;2022-12-18T03:45:51;-4.60;99.90
3268;DHT22;1646;52.450;13.326;2022-12-18T03:50:57;-4.50;99.90
3268;DHT22;1646;52.450;13.326;2022-12-18T03:55:57;-4.60;99.90
3268;DHT22;1646;52.450;13.326;2022-12-18T04:01:07;-4.60;99.90
3268;DHT22;1646;52.450;13.326;2022-12-18T04:06:07;-4.60;99.90
3268;DHT22;1646;52.450;13.326;2022-12-18T04:11:08;-4.70;99.90
3268;DHT22;1646;52.450;13.326;2022-12-18T04:16:09;-4.80;99.90
3268;DHT22;1646;52.450;13.326;2022-12-18T04:21:11;-5.00;99.90
3268;DHT22;1646;52.450;13.326;2022-12-18T04:26:09;-5.00;99.90
3268;DHT22;1646;52.450;13.326;2022-12-18T04:31:29;-4.90;99.90
3268;DHT22;1646;52.450;13.326;2022-12-18T04:36:29;-4.70;99.90
3268;DHT22;1646;52.450;13.326;2022-12-18T04:41:27;-4.60;99.90
3268;DHT22;1646;52.450;13.326;2022-12-18T04:46:25;-4.50;99.90
3268;DHT22;1646;52.450;13.326;2022-12-18T04:51:25;-4.60;99.90
3268;DHT22;1646;52.450;13.326;2022-12-18T04:56:23;-4.60;99.90
3268;DHT22;1646;52.450;13.326;2022-12-18T05:01:21;-4.70;99.90
3268;DHT22;1646;52.450;13.326;2022-12-18T05:06:19;-4.80;99.90
3268;DHT22;1646;52.450;13.326;2022-12-18T05:11:18;-4.90;99.90
3268;DHT22;1646;52.450;13.326;2022-12-18T05:16:16;-4.90;99.90
3268;DHT22;1646;52.450;13.326;2022-12-18T05:21:14;-4.90;99.90
3268;DHT22;1646;52.450;13.326;2022-12-18T05:26:16;-4.90;99.90
3268;DHT22;1646;52.450;13.326;2022-12-18T05:31:15;-4.90;99.90
3268;DHT22;1646;52.450;13.326;2022-12-18T05:36:14;-4.90;99.90
3268;DHT22;1646;52.450;13.326;2022-12-18T05:41:12;-4.80;99.90
3268;DHT22;1646;52.450;13.326;2022-12-18T05:46:12;-4.80;99.90
3268;DHT22;1646;52.450;13.326;2022-12-18T05:51:14;-4.90;99.90
3268;DHT22;1646;52.450;13.326;2022-12-18T05:56:14;-5.20;99.90
3268;DHT22;1646;52.450;13.326;2022-12-18T06:01:14;-5.10;99.90
3268;DHT22;1646;52.450;13.326;2022-12-18T06:06:16;-5.10;99.90
3268;DHT22;1646;52.450;13.326;2022-12-18T06:11:17;-5.10;99.90
3268;DHT22;1646;52.450;13.326;2022-12-18T06:16:15;-4.90;99.90
3268;DHT22;1646;52.450;13.326;2022-12-18T06:21:15;-4.90;99.90
3268;DHT22;1646;52.450;13.326;2022-12-18T06:26:13;-4.90;99.90
3268;DHT22;1646;52.450;13.326;2022-12-18T06:31:12;-4.80;99.90
3268;DHT22;1646;52.450;13.326;2022-12-18T06:36:11;-4.80;99.90
3268;DHT22;1646;52.450;13.326;2022-12-18T06:41:12;-4.70;99.90
3268;DHT22;1646;52.450;13.326;2022-12-18T06:46:11;-4.60;99.90
3268;DHT22;1646;52.450;13.326;2022-12-18T06:51:10;-4.70;99.90
3268;DHT22;1646;52.450;13.326;2022-12-18T06:56:08;-4.70;99.90
3268;DHT22;1646;52.450;13.326;2022-12-18T07:01:09;-4.60;99.90
3268;DHT22;1646;52.450;13.326;2022-12-18T07:06:14;-4.70;99.90
3268;DHT22;1646;52.450;13.326;2022-12-18T07:11:13;-4.60;99.90
3268;DHT22;1646;52.450;13.326;2022-12-18T07:16:14;-4.60;99.90
3268;DHT22;1646;52.450;13.326;2022-12-18T07:21:21;-4.50;99.90
3268;DHT22;1646;52.450;13.326;2022-12-18T07:26:21;-4.40;99.90
3268;DHT22;1646;52.450;13.326;2022-12-18T07:31:21;-4.50;99.90
3268;DHT22;1646;52.450;13.326;2022-12-18T07:36:19;-4.60;99.90
3268;DHT22;1646;52.450;13.326;2022-12-18T07:41:20;-4.60;99.90
3268;DHT22;1646;52.450;13.326;2022-12-18T07:46:19;-4.40;99.90
3268;DHT22;1646;52.450;13.326;2022-12-18T07:51:18;-4.40;99.90
3268;DHT22;1646;52.450;13.326;2022-12-18T07:56:16;-4.50;99.90
3268;DHT22;1646;52.450;13.326;2022-12-18T08:01:23;-4.70;99.90
3268;DHT22;1646;52.450;13.326;2022-12-18T08:06:23;-4.70;99.90
3268;DHT22;1646;52.450;13.326;2022-12-18T08:11:23;-4.60;99.90
3268;DHT22;1646;52.450;13.326;2022-12-18T08:16:22;-4.60;99.90
3268;DHT22;1646;52.450;13.326;2022-12-18T08:21:24;-4.60;99.90
3268;DHT22;1646;52.450;13.326;2022-12-18T08:26:25;-4.50;99.90
3268;DHT22;1646;52.450;13.326;2022-12-18T08:31:23;-4.40;99.90
3268;DHT22;1646;52.450;13.326;2022-12-18T08:36:23;-4.40;99.90
3268;DHT22;1646;52.450;13.326;2022-12-18T08:41:23;-4.20;99.90
3268;DHT22;1646;52.450;13.326;2022-12-18T08:46:23;-4.20;99.90
3268;DHT22;1646;52.450;13.326;2022-12-18T08:51:23;-4.30;99.90
3268;DHT22;1646;52.450;13.326;2022-12-18T08:56:21;-4.30;99.90
3268;DHT22;1646;52.450;13.326;2022-12-18T09:01:19;-4.30;99.90
3268;DHT22;1646;52.450;13.326;2022-12-18T09:06:19;-4.00;99.90
3268;DHT22;1646;52.450;13.326;2022-12-18T09:11:21;-4.00;99.90
3268;DHT22;1646;52.450;13.326;2022-12-18T09:16:22;-3.90;99.90
3268;DHT22;1646;52.450;13.326;2022-12-18T09:21:29;-4.00;99.90
3268;DHT22;1646;52.450;13.326;2022-12-18T09:26:32;-4.00;99.90
3268;DHT22;1646;52.450;13.326;2022-12-18T09:31:30;-4.00;99.90
3268;DHT22;1646;52.450;13.326;2022-12-18T09:36:28;-4.00;99.90
3268;DHT22;1646;52.450;13.326;2022-12-18T09:41:44;-3.90;99.90
3268;DHT22;1646;52.450;13.326;2022-12-18T09:46:47;-3.80;99.90
3268;DHT22;1646;52.450;13.326;2022-12-18T09:51:49;-3.80;99.90
3268;DHT22;1646;52.450;13.326;2022-12-18T09:56:49;-3.90;99.90
3268;DHT22;1646;52.450;13.326;2022-12-18T10:01:47;-3.70;99.90
3268;DHT22;1646;52.450;13.326;2022-12-18T10:06:51;-3.80;99.90
3268;DHT22;1646;52.450;13.326;2022-12-18T10:11:58;-3.80;99.90
3268;DHT22;1646;52.450;13.326;2022-12-18T10:17:05;-3.50;99.90
3268;DHT22;1646;52.450;13.326;2022-12-18T10:22:19;-3.50;99.90
3268;DHT22;1646;52.450;13.326;2022-12-18T10:27:24;-3.40;99.90
3268;DHT22;1646;52.450;13.326;2022-12-18T10:32:25;-3.40;99.90
3268;DHT22;1646;52.450;13.326;2022-12-18T10:37:26;-3.40;99.90
3268;DHT22;1646;52.450;13.326;2022-12-18T10:42:25;-3.50;99.90
3268;DHT22;1646;52.450;13.326;2022-12-18T10:47:23;-3.40;99.90
3268;DHT22;1646;52.450;13.326;2022-12-18T10:52:23;-3.40;99.90
3268;DHT22;1646;52.450;13.326;2022-12-18T10:57:33;-3.40;99.90
3268;DHT22;1646;52.450;13.326;2022-12-18T11:02:34;-3.30;99.90
3268;DHT22;1646;52.450;13.326;2022-12-18T11:07:48;-3.30;99.90
3268;DHT22;1646;52.450;13.326;2022-12-18T11:12:48;-3.10;99.90
3268;DHT22;1646;52.450;13.326;2022-12-18T11:17:48;-3.00;99.90
3268;DHT22;1646;52.450;13.326;2022-12-18T11:22:55;-3.00;99.90
3268;DHT22;1646;52.450;13.326;2022-12-18T11:27:57;-2.80;99.90
3268;DHT22;1646;52.450;13.326;2022-12-18T11:33:01;-2.90;99.90
3268;DHT22;1646;52.450;13.326;2022-12-18T11:38:04;-2.80;99.90
3268;DHT22;1646;52.450;13.326;2022-12-18T11:43:10;-2.80;99.90
3268;DHT22;1646;52.450;13.326;2022-12-18T11:48:15;-2.80;99.90
3268;DHT22;1646;52.450;13.326;2022-12-18T11:53:14;-2.70;99.90
3268;DHT22;1646;52.450;13.326;2022-12-18T11:58:18;-2.80;99.90
3268;DHT22;1646;52.450;13.326;2022-12-18T12:09:17;-2.80;99.90
3268;DHT22;1646;52.450;13.326;2022-12-18T12:14:34;-2.60;99.90
3268;DHT22;1646;52.450;13.326;2022-12-18T12:19:40;-2.70;99.90
3268;DHT22;1646;52.450;13.326;2022-12-18T12:24:51;-2.70;99.90
3268;DHT22;1646;52.450;13.326;2022-12-18T12:30:00;-2.60;99.90
3268;DHT22;1646;52.450;13.326;2022-12-18T12:35:09;-2.40;99.90
3268;DHT22;1646;52.450;13.326;2022-12-18T12:40:13;-2.30;99.90
3268;DHT22;1646;52.450;13.326;2022-12-18T12:45:38;-2.40;99.90
3268;DHT22;1646;52.450;13.326;2022-12-18T12:50:40;-2.30;99.90
3268;DHT22;1646;52.450;13.326;2022-12-18T12:55:40;-2.30;99.90
3268;DHT22;1646;52.450;13.326;2022-12-18T13:00:43;-2.40;99.90
3268;DHT22;1646;52.450;13.326;2022-12-18T13:05:48;-2.50;99.90
3268;DHT22;1646;52.450;13.326;2022-12-18T13:10:47;-2.50;99.90
3268;DHT22;1646;52.450;13.326;2022-12-18T13:15:48;-2.70;99.90
3268;DHT22;1646;52.450;13.326;2022-12-18T13:20:49;-2.60;99.90
3268;DHT22;1646;52.450;13.326;2022-12-18T13:25:56;-2.40;99.90
3268;DHT22;1646;52.450;13.326;2022-12-18T13:30:56;-2.40;99.90
3268;DHT22;1646;52.450;13.326;2022-12-18T13:36:03;-2.40;99.90
3268;DHT22;1646;52.450;13.326;2022-12-18T13:41:22;-2.60;99.90
3268;DHT22;1646;52.450;13.326;2022-12-18T13:46:25;-2.60;99.90
3268;DHT22;1646;52.450;13.326;2022-12-18T13:51:25;-2.60;99.90
3268;DHT22;1646;52.450;13.326;2022-12-18T13:56:27;-2.60;99.90
3268;DHT22;1646;52.450;13.326;2022-12-18T14:01:26;-2.60;99.90
3268;DHT22;1646;52.450;13.326;2022-12-18T14:06:25;-2.70;99.90
3268;DHT22;1646;52.450;13.326;2022-12-18T14:11:24;-2.70;99.90
3268;DHT22;1646;52.450;13.326;2022-12-18T14:16:23;-2.70;99.90
3268;DHT22;1646;52.450;13.326;2022-12-18T14:21:26;-2.90;99.90
3268;DHT22;1646;52.450;13.326;2022-12-18T14:26:26;-2.90;99.90
3268;DHT22;1646;52.450;13.326;2022-12-18T14:31:28;-2.80;99.90
3268;DHT22;1646;52.450;13.326;2022-12-18T14:36:28;-2.70;99.90
3268;DHT22;1646;52.450;13.326;2022-12-18T14:41:27;-2.60;99.90
3268;DHT22;1646;52.450;13.326;2022-12-18T14:46:32;-2.40;99.90
3268;DHT22;1646;52.450;13.326;2022-12-18T14:51:33;-2.70;99.90
3268;DHT22;1646;52.450;13.326;2022-12-18T14:56:33;-2.90;99.90
3268;DHT22;1646;52.450;13.326;2022-12-18T15:01:34;-3.00;99.90
3268;DHT22;1646;52.450;13.326;2022-12-18T15:06:36;-3.10;99.90
3268;DHT22;1646;52.450;13.326;2022-12-18T15:11:42;-3.00;99.90
3268;DHT22;1646;52.450;13.326;2022-12-18T15:16:41;-2.90;99.90
3268;DHT22;1646;52.450;13.326;2022-12-18T15:21:43;-3.10;99.90
3268;DHT22;1646;52.450;13.326;2022-12-18T15:26:41;-3.20;99.90
3268;DHT22;1646;52.450;13.326;2022-12-18T15:31:40;-3.30;99.90
3268;DHT22;1646;52.450;13.326;2022-12-18T15:36:38;-3.30;99.90
3268;DHT22;1646;52.450;13.326;2022-12-18T15:41:37;-3.10;99.90
3268;DHT22;1646;52.450;13.326;2022-12-18T15:46:35;-3.10;99.90
3268;DHT22;1646;52.450;13.326;2022-12-18T15:51:36;-3.20;99.90
3268;DHT22;1646;52.450;13.326;2022-12-18T15:56:36;-3.10;99.90
3268;DHT22;1646;52.450;13.326;2022-12-18T16:01:52;-3.10;99.90
3268;DHT22;1646;52.450;13.326;2022-12-18T16:06:51;-3.10;99.90
3268;DHT22;1646;52.450;13.326;2022-12-18T16:12:16;-3.20;99.90
3268;DHT22;1646;52.450;13.326;2022-12-18T16:17:15;-3.20;99.90
3268;DHT22;1646;52.450;13.326;2022-12-18T16:22:18;-3.20;99.90
3268;DHT22;1646;52.450;13.326;2022-12-18T16:27:19;-3.10;99.90
3268;DHT22;1646;52.450;13.326;2022-12-18T16:32:19;-3.00;99.90
3268;DHT22;1646;52.450;13.326;2022-12-18T16:37:18;-3.00;99.90
3268;DHT22;1646;52.450;13.326;2022-12-18T16:42:18;-3.00;99.90
3268;DHT22;1646;52.450;13.326;2022-12-18T16:47:17;-3.00;99.90
3268;DHT22;1646;52.450;13.326;2022-12-18T16:52:15;-3.00;99.90
3268;DHT22;1646;52.450;13.326;2022-12-18T16:57:16;-3.20;99.90
3268;DHT22;1646;52.450;13.326;2022-12-18T17:02:20;-3.20;99.90
3268;DHT22;1646;52.450;13.326;2022-12-18T17:07:20;-3.20;99.90
3268;DHT22;1646;52.450;13.326;2022-12-18T17:12:18;-3.20;99.90
3268;DHT22;1646;52.450;13.326;2022-12-18T17:17:19;-3.10;99.90
3268;DHT22;1646;52.450;13.326;2022-12-18T17:22:20;-3.00;99.90
3268;DHT22;1646;52.450;13.326;2022-12-18T17:27:19;-3.10;99.90
3268;DHT22;1646;52.450;13.326;2022-12-18T17:32:18;-3.10;99.90
3268;DHT22;1646;52.450;13.326;2022-12-18T17:37:16;-3.20;99.90
3268;DHT22;1646;52.450;13.326;2022-12-18T17:42:14;-3.20;99.90
3268;DHT22;1646;52.450;13.326;2022-12-18T17:47:13;-3.30;99.90
3268;DHT22;1646;52.450;13.326;2022-12-18T17:52:12;-3.20;99.90
3268;DHT22;1646;52.450;13.326;2022-12-18T17:57:10;-3.30;99.90
3268;DHT22;1646;52.450;13.326;2022-12-18T18:02:10;-3.30;99.90
3268;DHT22;1646;52.450;13.326;2022-12-18T18:07:08;-3.30;99.90
3268;DHT22;1646;52.450;13.326;2022-12-18T18:12:08;-3.20;99.90
3268;DHT22;1646;52.450;13.326;2022-12-18T18:17:23;-3.30;99.90
3268;DHT22;1646;52.450;13.326;2022-12-18T18:22:21;-3.30;99.90
3268;DHT22;1646;52.450;13.326;2022-12-18T18:27:21;-3.30;99.90
3268;DHT22;1646;52.450;13.326;2022-12-18T18:32:19;-3.30;99.90
3268;DHT22;1646;52.450;13.326;2022-12-18T18:37:17;-3.40;99.90
3268;DHT22;1646;52.450;13.326;2022-12-18T18:42:15;-3.30;99.90
3268;DHT22;1646;52.450;13.326;2022-12-18T18:47:17;-3.40;99.90
3268;DHT22;1646;52.450;13.326;2022-12-18T18:52:16;-3.40;99.90
3268;DHT22;1646;52.450;13.326;2022-12-18T18:57:14;-3.40;99.90
3268;DHT22;1646;52.450;13.326;2022-12-18T19:02:19;-3.50;99.90
3268;DHT22;1646;52.450;13.326;2022-12-18T19:07:17;-3.50;99.90
3268;DHT22;1646;52.450;13.326;2022-12-18T19:12:26;-3.50;99.90
3268;DHT22;1646;52.450;13.326;2022-12-18T19:17:43;-3.50;99.90
3268;DHT22;1646;52.450;13.326;2022-12-18T19:22:43;-3.50;99.90
3268;DHT22;1646;52.450;13.326;2022-12-18T19:27:51;-3.50;99.90
3268;DHT22;1646;52.450;13.326;2022-12-18T19:32:51;-3.60;99.90
3268;DHT22;1646;52.450;13.326;2022-12-18T19:37:49;-3.70;99.90
3268;DHT22;1646;52.450;13.326;2022-12-18T19:42:47;-3.80;99.90
3268;DHT22;1646;52.450;13.326;2022-12-18T19:47:45;-3.80;99.90
3268;DHT22;1646;52.450;13.326;2022-12-18T19:52:44;-3.80;99.90
3268;DHT22;1646;52.450;13.326;2022-12-18T19:57:43;-3.70;99.90
3268;DHT22;1646;52.450;13.326;2022-12-18T20:02:41;-3.50;99.90
3268;DHT22;1646;52.450;13.326;2022-12-18T20:07:39;-3.60;99.90
3268;DHT22;1646;52.450;13.326;2022-12-18T20:12:41;-3.60;99.90
3268;DHT22;1646;52.450;13.326;2022-12-18T20:17:39;-3.60;99.90
3268;DHT22;1646;52.450;13.326;2022-12-18T20:22:38;-3.60;99.90
3268;DHT22;1646;52.450;13.326;2022-12-18T20:27:36;-3.60;99.90
3268;DHT22;1646;52.450;13.326;2022-12-18T20:32:35;-3.60;99.90
3268;DHT22;1646;52.450;13.326;2022-12-18T20:37:33;-3.70;99.90
3268;DHT22;1646;52.450;13.326;2022-12-18T20:42:35;-3.70;99.90
3268;DHT22;1646;52.450;13.326;2022-12-18T20:47:34;-3.80;99.90
3268;DHT22;1646;52.450;13.326;2022-12-18T20:52:32;-3.90;99.90
3268;DHT22;1646;52.450;13.326;2022-12-18T20:57:31;-3.80;99.90
3268;DHT22;1646;52.450;13.326;2022-12-18T21:02:30;-3.80;99.90
3268;DHT22;1646;52.450;13.326;2022-12-18T21:07:29;-3.70;99.90
3268;DHT22;1646;52.450;13.326;2022-12-18T21:12:27;-3.70;99.90
3268;DHT22;1646;52.450;13.326;2022-12-18T21:17:44;-3.80;99.90
3268;DHT22;1646;52.450;13.326;2022-12-18T21:22:44;-3.80;99.90
3268;DHT22;1646;52.450;13.326;2022-12-18T21:27:42;-3.80;99.90
3268;DHT22;1646;52.450;13.326;2022-12-18T21:32:41;-3.80;99.90
3268;DHT22;1646;52.450;13.326;2022-12-18T21:37:39;-3.70;99.90
3268;DHT22;1646;52.450;13.326;2022-12-18T21:42:38;-3.80;99.90
3268;DHT22;1646;52.450;13.326;2022-12-18T21:47:54;-3.70;99.90
3268;DHT22;1646;52.450;13.326;2022-12-18T21:52:52;-3.80;99.90
3268;DHT22;1646;52.450;13.326;2022-12-18T21:57:52;-3.80;99.90
3268;DHT22;1646;52.450;13.326;2022-12-18T22:02:50;-3.70;99.90
3268;DHT22;1646;52.450;13.326;2022-12-18T22:08:09;-3.70;99.90
3268;DHT22;1646;52.450;13.326;2022-12-18T22:13:09;-3.80;99.90
3268;DHT22;1646;52.450;13.326;2022-12-18T22:18:07;-3.60;99.90
3268;DHT22;1646;52.450;13.326;2022-12-18T22:23:05;-3.70;99.90
3268;DHT22;1646;52.450;13.326;2022-12-18T22:28:05;-3.70;99.90
3268;DHT22;1646;52.450;13.326;2022-12-18T22:33:21;-3.60;99.90
3268;DHT22;1646;52.450;13.326;2022-12-18T22:38:20;-3.70;99.90
3268;DHT22;1646;52.450;13.326;2022-12-18T22:43:18;-3.60;99.90
3268;DHT22;1646;52.450;13.326;2022-12-18T22:48:16;-3.50;99.90
3268;DHT22;1646;52.450;13.326;2022-12-18T22:53:16;-3.50;99.90
3268;DHT22;1646;52.450;13.326;2022-12-18T22:58:14;-3.60;99.90
3268;DHT22;1646;52.450;13.326;2022-12-18T23:03:12;-3.60;99.90
3268;DHT22;1646;52.450;13.326;2022-12-18T23:08:10;-3.60;99.90
3268;DHT22;1646;52.450;13.326;2022-12-18T23:13:09;-3.60;99.90
3268;DHT22;1646;52.450;13.326;2022-12-18T23:18:07;-3.60;99.90
3268;DHT22;1646;52.450;13.326;2022-12-18T23:23:05;-3.60;99.90
3268;DHT22;1646;52.450;13.326;2022-12-18T23:28:04;-3.60;99.90
3268;DHT22;1646;52.450;13.326;2022-12-18T23:33:03;-3.70;99.90
3268;DHT22;1646;52.450;13.326;2022-12-18T23:38:01;-3.80;99.90
3268;DHT22;1646;52.450;13.326;2022-12-18T23:42:59;-3.70;99.90
3268;DHT22;1646;52.450;13.326;2022-12-18T23:47:57;-3.70;99.90
3268;DHT22;1646;52.450;13.326;2022-12-18T23:52:58;-3.60;99.90
3268;DHT22;1646;52.450;13.326;2022-12-18T23:58:01;-3.60;99.90
